createdAt,value
2018-11-07T00:00:18.824Z,38.38
2018-11-07T00:02:54.497Z,48.30
2018-11-07T00:05:29.771Z,45.17
2018-11-07T00:08:06.584Z,40.88
2018-11-07T00:10:41.752Z,43.08
2018-11-07T00:13:17.591Z,45.05
2018-11-07T00:15:53.031Z,48.92
2018-11-07T00:18:28.711Z,35.75
2018-11-07T00:21:04.021Z,37.83
2018-11-07T00:23:39.703Z,34.83
2018-11-07T00:26:15.114Z,38.63
2018-11-07T00:28:50.645Z,32.58
2018-11-07T00:31:26.353Z,42.53
2018-11-07T00:34:02.331Z,41.28
2018-11-07T00:36:37.350Z,32.70
2018-11-07T00:39:12.851Z,45.88
2018-11-07T00:41:48.431Z,40.12
2018-11-07T00:44:23.863Z,38.15
2018-11-07T00:46:59.394Z,39.33
2018-11-07T00:49:34.832Z,44.13
2018-11-07T00:52:10.394Z,50.55
2018-11-07T00:54:45.917Z,52.08
2018-11-07T00:57:21.384Z,49.50
2018-11-07T00:59:56.844Z,41.68
2018-11-07T01:02:32.362Z,48.87
2018-11-07T01:05:09.012Z,50.55
2018-11-07T01:07:45.474Z,61.90
2018-11-07T01:10:21.103Z,43.70
2018-11-07T01:12:56.425Z,54.80
2018-11-07T01:15:32.014Z,45.17
2018-11-07T01:18:07.893Z,52.58
2018-11-07T01:20:43.368Z,55.70
2018-11-07T01:23:18.791Z,48.38
2018-11-07T01:25:54.097Z,65.22
2018-11-07T01:28:29.634Z,56.73
2018-11-07T01:31:05.137Z,82.12
2018-11-07T01:33:40.760Z,54.05
2018-11-07T01:36:16.556Z,115.60
2018-11-07T01:38:51.951Z,81.30
2018-11-07T01:41:27.436Z,201.65
2018-11-07T01:44:02.945Z,75.25
2018-11-07T01:46:38.084Z,46.15
2018-11-07T01:49:13.577Z,56.35
2018-11-07T01:51:49.302Z,48.78
2018-11-07T01:54:24.735Z,48.05
2018-11-07T01:57:00.423Z,49.40
2018-11-07T01:59:35.811Z,47.95
2018-11-07T02:02:11.433Z,55.85
2018-11-07T02:04:47.014Z,48.30
2018-11-07T02:07:22.550Z,43.95
2018-11-07T02:09:58.104Z,46.02
2018-11-07T02:12:33.531Z,53.78
2018-11-07T02:15:09.837Z,57.75
2018-11-07T02:17:45.484Z,48.33
2018-11-07T02:20:20.921Z,61.70
2018-11-07T02:22:56.508Z,82.45
2018-11-07T02:25:32.054Z,39.65
2018-11-07T02:28:07.451Z,56.50
2018-11-07T02:30:43.012Z,51.55
2018-11-07T02:33:18.671Z,50.83
2018-11-07T02:35:54.094Z,49.35
2018-11-07T02:38:29.244Z,49.98
2018-11-07T02:41:04.848Z,54.15
2018-11-07T02:43:40.434Z,55.17
2018-11-07T02:46:15.902Z,48.95
2018-11-07T02:48:51.763Z,47.27
2018-11-07T02:51:27.031Z,48.33
2018-11-07T02:54:02.996Z,46.88
2018-11-07T02:56:38.363Z,50.85
2018-11-07T02:59:13.820Z,300.93
2018-11-07T03:01:49.212Z,53.95
2018-11-07T03:04:24.626Z,63.68
2018-11-07T03:07:00.145Z,54.08
2018-11-07T03:09:35.481Z,72.72
2018-11-07T03:12:10.682Z,53.35
2018-11-07T03:14:46.147Z,93.62
2018-11-07T03:17:21.641Z,48.40
2018-11-07T03:19:57.374Z,51.10
2018-11-07T03:22:32.755Z,77.55
2018-11-07T03:25:10.995Z,48.65
2018-11-07T03:27:46.383Z,49.83
2018-11-07T03:30:21.875Z,54.27
2018-11-07T03:32:57.339Z,57.15
2018-11-07T03:35:32.654Z,65.32
2018-11-07T03:38:08.270Z,52.67
2018-11-07T03:40:43.754Z,76.95
2018-11-07T03:43:19.270Z,89.25
2018-11-07T03:46:02.925Z,147.90
2018-11-07T03:48:38.604Z,84.67
2018-11-07T03:51:13.955Z,88.78
2018-11-07T03:53:49.382Z,96.80
2018-11-07T03:56:24.901Z,108.17
2018-11-07T03:59:00.264Z,70.75
2018-11-07T04:01:35.719Z,73.78
2018-11-07T04:04:11.156Z,91.63
2018-11-07T04:06:46.704Z,84.67
2018-11-07T04:09:22.332Z,59.35
2018-11-07T04:11:58.083Z,125.10
2018-11-07T04:14:33.561Z,85.57
2018-11-07T04:17:08.963Z,88.62
2018-11-07T04:19:44.321Z,61.88
2018-11-07T04:22:19.641Z,65.67
2018-11-07T04:24:54.892Z,67.95
2018-11-07T04:27:30.304Z,52.67
2018-11-07T04:30:07.710Z,66.22
2018-11-07T04:32:43.464Z,92.08
2018-11-07T04:35:19.321Z,53.73
2018-11-07T04:37:54.884Z,73.55
2018-11-07T04:40:30.662Z,69.27
2018-11-07T04:43:06.700Z,74.82
2018-11-07T04:45:41.990Z,141.22
2018-11-07T04:48:17.289Z,103.45
2018-11-07T04:50:52.842Z,64.10
2018-11-07T04:53:28.483Z,72.35
2018-11-07T04:56:04.135Z,69.47
2018-11-07T04:58:39.634Z,115.10
2018-11-07T05:01:15.007Z,75.37
2018-11-07T05:03:50.444Z,87.47
2018-11-07T05:06:27.115Z,80.72
2018-11-07T05:09:02.774Z,74.65
2018-11-07T05:11:38.314Z,91.10
2018-11-07T05:14:13.524Z,62.23
2018-11-07T05:16:49.914Z,80.80
2018-11-07T05:19:25.310Z,96.22
2018-11-07T05:22:00.792Z,110.68
2018-11-07T05:24:36.383Z,127.65
2018-11-07T05:27:11.507Z,106.90
2018-11-07T05:29:47.110Z,107.35
2018-11-07T05:32:22.709Z,101.42
2018-11-07T05:34:58.144Z,119.93
2018-11-07T05:37:33.351Z,121.77
2018-11-07T05:40:08.782Z,140.47
2018-11-07T05:42:44.452Z,136.45
2018-11-07T05:45:19.901Z,141.85
2018-11-07T05:47:55.331Z,133.03
2018-11-07T05:50:30.794Z,194.67
2018-11-07T05:53:06.497Z,145.38
2018-11-07T05:55:41.944Z,168.90
2018-11-07T05:58:17.234Z,141.07
2018-11-07T06:00:52.963Z,142.75
2018-11-07T06:03:28.318Z,162.05
2018-11-07T06:06:03.925Z,150.05
2018-11-07T06:08:39.381Z,192.10
2018-11-07T06:11:15.081Z,193.78
2018-11-07T06:13:50.461Z,128.80
2018-11-07T06:16:26.024Z,248.05
2018-11-07T06:19:01.249Z,118.30
2018-11-07T06:21:37.040Z,330.85
2018-11-07T06:24:12.352Z,299.60
2018-11-07T06:26:47.635Z,142.13
2018-11-07T06:29:23.281Z,166.28
2018-11-07T06:31:58.924Z,130.70
2018-11-07T06:34:34.313Z,147.93
2018-11-07T06:37:09.871Z,207.57
2018-11-07T06:39:45.391Z,305.10
2018-11-07T06:42:20.804Z,141.30
2018-11-07T06:44:56.296Z,155.45
2018-11-07T06:47:31.876Z,128.80
2018-11-07T06:50:10.544Z,220.55
2018-11-07T06:52:46.051Z,148.17
2018-11-07T06:55:21.431Z,199.47
2018-11-07T06:57:56.822Z,169.00
2018-11-07T07:00:34.917Z,220.33
2018-11-07T07:03:10.121Z,237.00
2018-11-07T07:05:45.471Z,173.43
2018-11-07T07:08:20.941Z,224.30
2018-11-07T07:10:56.571Z,230.83
2018-11-07T07:13:32.042Z,175.22
2018-11-07T07:16:07.482Z,269.23
2018-11-07T07:18:43.155Z,281.40
2018-11-07T07:21:18.581Z,213.00
2018-11-07T07:23:54.011Z,291.00
2018-11-07T07:26:29.393Z,229.93
2018-11-07T07:29:05.016Z,181.20
2018-11-07T07:31:40.467Z,187.20
2018-11-07T07:34:15.840Z,177.35
2018-11-07T07:36:51.089Z,250.40
2018-11-07T07:39:26.472Z,345.37
2018-11-07T07:42:01.802Z,227.25
2018-11-07T07:44:37.252Z,233.53
2018-11-07T07:47:12.698Z,157.60
2018-11-07T07:49:48.121Z,203.42
2018-11-07T07:52:23.531Z,152.22
2018-11-07T07:54:58.703Z,244.70
2018-11-07T07:57:34.086Z,188.75
2018-11-07T08:00:13.451Z,158.52
2018-11-07T08:02:49.948Z,122.50
2018-11-07T08:05:25.401Z,157.55
2018-11-07T08:08:00.961Z,167.43
2018-11-07T08:10:36.381Z,116.62
2018-11-07T08:13:11.814Z,131.27
2018-11-07T08:15:47.173Z,115.25
2018-11-07T08:18:22.662Z,127.42
2018-11-07T08:20:58.263Z,140.10
2018-11-07T08:23:33.851Z,122.00
2018-11-07T08:26:09.241Z,99.67
2018-11-07T08:28:44.391Z,88.30
2018-11-07T08:31:19.762Z,98.00
2018-11-07T08:33:55.191Z,76.10
2018-11-07T08:36:30.658Z,89.37
2018-11-07T08:39:09.291Z,82.62
2018-11-07T08:41:44.940Z,75.80
2018-11-07T08:44:20.431Z,69.10
2018-11-07T08:46:55.771Z,72.90
2018-11-07T08:49:31.341Z,68.42
2018-11-07T08:52:06.851Z,61.40
2018-11-07T08:54:42.229Z,87.50
2018-11-07T08:57:17.701Z,74.85
2018-11-07T08:59:53.102Z,69.67
2018-11-07T09:02:28.474Z,67.03
2018-11-07T09:05:03.996Z,73.05
2018-11-07T09:07:39.546Z,71.60
2018-11-07T09:10:16.061Z,78.95
2018-11-07T09:12:51.483Z,59.40
2018-11-07T09:15:26.983Z,55.38
2018-11-07T09:18:02.362Z,54.73
2018-11-07T09:20:37.780Z,52.03
2018-11-07T09:23:13.227Z,55.58
2018-11-07T09:25:49.098Z,59.98
2018-11-07T09:28:24.551Z,51.68
2018-11-07T09:31:00.102Z,53.30
2018-11-07T09:33:35.563Z,51.80
2018-11-07T09:36:10.867Z,47.20
2018-11-07T09:38:46.154Z,55.43
2018-11-07T09:41:21.502Z,49.10
2018-11-07T09:43:57.191Z,59.35
2018-11-07T09:46:32.656Z,49.20
2018-11-07T09:49:08.063Z,52.05
2018-11-07T09:51:43.574Z,50.52
2018-11-07T09:54:18.939Z,48.05
2018-11-07T09:56:54.361Z,44.73
2018-11-07T09:59:29.814Z,51.45
2018-11-07T10:02:05.531Z,45.80
2018-11-07T10:04:40.893Z,47.60
2018-11-07T10:07:16.224Z,45.08
2018-11-07T10:09:51.677Z,50.33
2018-11-07T10:12:27.253Z,51.15
2018-11-07T10:15:02.377Z,46.83
2018-11-07T10:17:37.901Z,47.17
2018-11-07T10:20:22.690Z,44.05
2018-11-07T10:22:58.013Z,44.95
2018-11-07T10:25:33.333Z,44.48
2018-11-07T10:28:09.020Z,44.53
2018-11-07T10:30:44.101Z,47.73
2018-11-07T10:33:19.361Z,47.50
2018-11-07T10:35:54.631Z,43.50
2018-11-07T10:38:30.189Z,41.08
2018-11-07T10:41:05.613Z,40.88
2018-11-07T10:43:40.953Z,45.73
2018-11-07T10:46:16.272Z,47.27
2018-11-07T10:48:51.712Z,41.00
2018-11-07T10:51:27.251Z,48.28
2018-11-07T10:54:02.942Z,49.83
2018-11-07T10:56:38.391Z,46.35
2018-11-07T10:59:13.615Z,51.88
2018-11-07T11:01:53.937Z,51.40
2018-11-07T11:04:29.207Z,54.10
2018-11-07T11:07:04.822Z,43.68
2018-11-07T11:09:40.034Z,48.90
2018-11-07T11:12:15.571Z,48.87
2018-11-07T11:14:50.868Z,48.73
2018-11-07T11:17:26.404Z,49.75
2018-11-07T11:20:01.693Z,50.40
2018-11-07T11:22:37.085Z,48.73
2018-11-07T11:25:12.915Z,44.95
2018-11-07T11:27:48.399Z,49.27
2018-11-07T11:30:23.600Z,45.78
2018-11-07T11:32:58.900Z,43.87
2018-11-07T11:35:34.215Z,43.60
2018-11-07T11:38:09.525Z,40.33
2018-11-07T11:40:44.841Z,36.77
2018-11-07T11:43:20.140Z,38.28
2018-11-07T11:45:55.559Z,39.67
2018-11-07T11:48:31.042Z,39.27
2018-11-07T11:51:07.034Z,38.63
2018-11-07T11:53:42.601Z,39.15
2018-11-07T11:56:17.779Z,38.80
2018-11-07T11:58:53.144Z,37.75
2018-11-07T12:01:28.361Z,41.13
2018-11-07T12:04:03.794Z,38.78
2018-11-07T12:06:39.281Z,35.70
2018-11-07T12:09:14.571Z,38.23
2018-11-07T12:11:50.327Z,35.10
2018-11-07T12:14:25.884Z,39.05
2018-11-07T12:17:02.769Z,33.20
2018-11-07T12:19:38.213Z,31.90
2018-11-07T12:22:13.440Z,33.05
2018-11-07T12:24:48.793Z,38.20
2018-11-07T12:27:24.140Z,30.60
2018-11-07T12:29:59.511Z,36.50
2018-11-07T12:32:35.122Z,34.18
2018-11-07T12:35:10.465Z,33.08
2018-11-07T12:37:46.052Z,33.83
2018-11-07T12:40:21.868Z,30.40
2018-11-07T12:42:57.759Z,34.63
2018-11-07T12:45:33.337Z,31.57
2018-11-07T12:48:09.350Z,31.57
2018-11-07T12:50:44.954Z,32.40
2018-11-07T12:53:20.724Z,33.05
2018-11-07T12:55:56.132Z,31.20
2018-11-07T12:58:31.579Z,30.88
2018-11-07T13:01:08.812Z,29.52
2018-11-07T13:03:44.865Z,32.67
2018-11-07T13:06:22.582Z,26.62
2018-11-07T13:08:58.371Z,27.10
2018-11-07T13:11:34.087Z,23.65
2018-11-07T13:14:10.070Z,27.03
2018-11-07T13:16:49.511Z,26.70
2018-11-07T13:19:25.177Z,29.80
2018-11-07T13:22:01.049Z,28.70
2018-11-07T13:24:36.260Z,25.65
2018-11-07T13:27:11.580Z,25.97
2018-11-07T13:29:47.091Z,36.80
2018-11-07T13:32:22.666Z,31.23
2018-11-07T13:34:58.512Z,29.63
2018-11-07T13:37:34.508Z,29.72
2018-11-07T13:40:13.041Z,31.50
2018-11-07T13:42:49.101Z,33.53
2018-11-07T13:45:24.612Z,30.02
2018-11-07T13:47:59.912Z,36.38
2018-11-07T13:50:35.262Z,36.58
2018-11-07T13:53:10.610Z,38.73
2018-11-07T13:55:45.751Z,41.80
2018-11-07T13:58:21.085Z,41.73
2018-11-07T14:00:56.295Z,36.50
2018-11-07T14:03:31.783Z,38.20
2018-11-07T14:06:07.060Z,35.60
2018-11-07T14:08:42.431Z,46.50
2018-11-07T14:11:17.803Z,41.95
2018-11-07T14:13:53.144Z,42.70
2018-11-07T14:16:28.639Z,45.90
2018-11-07T14:19:04.144Z,44.90
2018-11-07T14:21:39.572Z,41.33
2018-11-07T14:24:15.016Z,41.85
2018-11-07T14:26:50.563Z,52.83
2018-11-07T14:29:26.011Z,43.50
2018-11-07T14:32:01.474Z,40.03
2018-11-07T14:34:37.168Z,43.25
2018-11-07T14:37:12.422Z,40.85
2018-11-07T14:39:47.751Z,39.50
2018-11-07T14:42:24.241Z,44.48
2018-11-07T14:44:59.782Z,41.02
2018-11-07T14:47:35.235Z,40.12
2018-11-07T14:50:11.523Z,41.35
2018-11-07T14:52:47.333Z,43.80
2018-11-07T14:55:22.441Z,43.05
2018-11-07T14:57:58.230Z,43.13
2018-11-07T15:00:33.621Z,43.83
2018-11-07T15:03:10.051Z,41.65
2018-11-07T15:05:45.715Z,43.15
2018-11-07T15:08:21.468Z,51.63
2018-11-07T15:10:57.036Z,41.23
2018-11-07T15:13:32.548Z,43.78
2018-11-07T15:16:08.184Z,47.62
2018-11-07T15:18:43.741Z,44.73
2018-11-07T15:21:19.182Z,43.78
2018-11-07T15:23:54.603Z,42.88
2018-11-07T15:26:29.948Z,45.20
2018-11-07T15:29:05.523Z,47.50
2018-11-07T15:31:40.862Z,43.70
2018-11-07T15:34:16.323Z,46.95
2018-11-07T15:36:51.522Z,45.78
2018-11-07T15:39:27.066Z,51.88
2018-11-07T15:42:02.715Z,51.55
2018-11-07T15:44:38.287Z,51.37
2018-11-07T15:47:13.687Z,46.10
2018-11-07T15:49:54.171Z,49.38
2018-11-07T15:52:29.557Z,54.20
2018-11-07T15:55:04.962Z,50.00
2018-11-07T15:57:40.381Z,48.92
2018-11-07T16:00:16.716Z,53.65
2018-11-07T16:02:52.207Z,50.05
2018-11-07T16:05:27.556Z,55.70
2018-11-07T16:08:02.992Z,54.25
2018-11-07T16:10:38.182Z,54.23
2018-11-07T16:13:13.799Z,50.17
2018-11-07T16:15:49.012Z,57.35
2018-11-07T16:18:24.256Z,48.73
2018-11-07T16:20:59.598Z,56.85
2018-11-07T16:23:34.875Z,51.15
2018-11-07T16:26:10.142Z,58.50
2018-11-07T16:28:45.805Z,51.13
2018-11-07T16:31:21.276Z,51.83
2018-11-07T16:33:56.819Z,49.15
2018-11-07T16:36:32.346Z,55.48
2018-11-07T16:39:09.753Z,53.28
2018-11-07T16:41:45.262Z,52.23
2018-11-07T16:44:20.655Z,50.95
2018-11-07T16:46:56.123Z,46.68
2018-11-07T16:49:31.661Z,51.37
2018-11-07T16:52:07.262Z,46.33
2018-11-07T16:54:42.942Z,43.15
2018-11-07T16:57:18.464Z,54.40
2018-11-07T16:59:53.991Z,47.33
2018-11-07T17:02:29.497Z,49.23
2018-11-07T17:05:05.029Z,51.30
2018-11-07T17:07:40.592Z,58.08
2018-11-07T17:10:16.086Z,57.30
2018-11-07T17:12:51.315Z,56.02
2018-11-07T17:15:27.701Z,47.93
2018-11-07T17:18:03.342Z,48.05
2018-11-07T17:20:38.702Z,50.80
2018-11-07T17:23:18.529Z,41.37
2018-11-07T17:25:49.405Z,46.83
2018-11-07T17:28:24.631Z,41.25
2018-11-07T17:31:00.247Z,47.17
2018-11-07T17:33:35.693Z,45.48
2018-11-07T17:36:11.419Z,51.73
2018-11-07T17:38:46.823Z,47.25
2018-11-07T17:41:22.161Z,41.83
2018-11-07T17:43:57.544Z,49.48
2018-11-07T17:46:32.957Z,51.15
2018-11-07T17:49:08.285Z,54.33
2018-11-07T17:51:43.608Z,43.98
2018-11-07T17:54:18.960Z,49.35
2018-11-07T17:56:54.396Z,51.30
2018-11-07T17:59:29.649Z,45.00
2018-11-07T18:02:05.496Z,49.70
2018-11-07T18:04:41.044Z,43.45
2018-11-07T18:07:16.651Z,47.75
2018-11-07T18:09:52.282Z,44.40
2018-11-07T18:12:27.355Z,41.83
2018-11-07T18:15:02.771Z,40.95
2018-11-07T18:17:37.936Z,41.60
2018-11-07T18:20:14.477Z,40.78
2018-11-07T18:22:49.491Z,43.65
2018-11-07T18:25:24.773Z,48.02
2018-11-07T18:28:00.190Z,44.98
2018-11-07T18:30:35.460Z,45.80
2018-11-07T18:33:10.558Z,40.73
2018-11-07T18:35:46.160Z,48.23
2018-11-07T18:38:21.360Z,37.13
2018-11-07T18:40:56.613Z,37.48
2018-11-07T18:43:31.831Z,50.98
2018-11-07T18:46:07.208Z,42.30
2018-11-07T18:48:42.653Z,40.80
2018-11-07T18:51:18.151Z,37.67
2018-11-07T18:53:53.563Z,50.10
2018-11-07T18:56:29.050Z,45.60
2018-11-07T18:59:04.546Z,42.05
2018-11-07T19:01:39.972Z,35.68
2018-11-07T19:04:15.387Z,40.70
2018-11-07T19:06:50.660Z,43.65
2018-11-07T19:09:25.881Z,46.73
2018-11-07T19:12:01.457Z,39.38
2018-11-07T19:14:36.790Z,41.20
2018-11-07T19:17:12.020Z,33.50
2018-11-07T19:19:47.358Z,39.00
2018-11-07T19:22:22.730Z,42.27
2018-11-07T19:24:58.117Z,38.70
2018-11-07T19:27:33.621Z,38.02
2018-11-07T19:30:11.162Z,41.83
2018-11-07T19:32:47.689Z,32.85
2018-11-07T19:35:23.222Z,34.65
2018-11-07T19:37:58.695Z,40.67
2018-11-07T19:40:34.110Z,41.28
2018-11-07T19:43:09.665Z,51.68
2018-11-07T19:45:45.331Z,36.88
2018-11-07T19:48:20.629Z,33.85
2018-11-07T19:50:56.099Z,38.30
2018-11-07T19:53:31.706Z,35.55
2018-11-07T19:56:08.187Z,39.83
2018-11-07T19:58:43.833Z,38.00
2018-11-07T20:01:19.205Z,37.05
2018-11-07T20:03:54.493Z,36.10
2018-11-07T20:06:29.800Z,37.28
2018-11-07T20:09:07.406Z,39.40
2018-11-07T20:11:42.827Z,34.10
2018-11-07T20:14:18.060Z,43.58
2018-11-07T20:16:53.501Z,39.53
2018-11-07T20:19:28.690Z,39.40
2018-11-07T20:22:04.191Z,34.73
2018-11-07T20:24:39.644Z,35.65
2018-11-07T20:27:15.190Z,36.73
2018-11-07T20:29:50.755Z,29.82
2018-11-07T20:32:26.059Z,35.28
2018-11-07T20:35:01.407Z,37.63
2018-11-07T20:37:36.861Z,36.68
2018-11-07T20:40:14.022Z,30.35
2018-11-07T20:42:50.140Z,34.88
2018-11-07T20:45:25.787Z,34.75
2018-11-07T20:48:01.397Z,31.40
2018-11-07T20:50:37.060Z,30.82
2018-11-07T20:53:12.442Z,31.50
2018-11-07T20:55:47.861Z,39.15
2018-11-07T20:58:23.479Z,31.82
2018-11-07T21:00:58.732Z,40.38
2018-11-07T21:03:34.965Z,34.75
2018-11-07T21:06:10.466Z,34.43
2018-11-07T21:08:45.692Z,34.83
2018-11-07T21:11:21.021Z,32.90
2018-11-07T21:13:56.411Z,35.73
2018-11-07T21:16:31.806Z,46.18
2018-11-07T21:19:07.157Z,48.52
2018-11-07T21:21:42.943Z,37.80
2018-11-07T21:24:18.454Z,44.48
2018-11-07T21:26:54.192Z,37.75
2018-11-07T21:29:29.209Z,34.10
2018-11-07T21:32:05.145Z,39.73
2018-11-07T21:34:40.421Z,35.73
2018-11-07T21:37:15.761Z,34.70
2018-11-07T21:39:51.143Z,34.63
2018-11-07T21:42:26.792Z,34.05
2018-11-07T21:45:02.021Z,28.38
2018-11-07T21:47:37.530Z,39.50
2018-11-07T21:50:14.160Z,36.30
2018-11-07T21:52:49.465Z,33.53
2018-11-07T21:55:24.760Z,39.25
2018-11-07T21:57:59.844Z,41.80
2018-11-07T22:00:35.281Z,40.45
2018-11-07T22:03:10.753Z,39.23
2018-11-07T22:05:46.281Z,42.38
2018-11-07T22:08:21.891Z,39.15
2018-11-07T22:10:57.230Z,33.78
2018-11-07T22:13:33.569Z,41.90
2018-11-07T22:16:09.280Z,36.13
2018-11-07T22:18:44.699Z,38.30
2018-11-07T22:21:20.597Z,39.50
2018-11-07T22:23:56.299Z,35.45
2018-11-07T22:26:31.706Z,37.73
2018-11-07T22:29:07.310Z,45.05
2018-11-07T22:31:42.898Z,37.33
2018-11-07T22:34:18.250Z,43.90
2018-11-07T22:36:53.670Z,42.75
2018-11-07T22:39:29.361Z,37.88
2018-11-07T22:42:04.750Z,37.03
2018-11-07T22:44:40.165Z,36.17
2018-11-07T22:47:15.431Z,32.63
2018-11-07T22:49:51.130Z,36.88
2018-11-07T22:52:26.582Z,39.50
2018-11-07T22:55:02.074Z,35.90
2018-11-07T22:57:37.350Z,36.25
2018-11-07T23:00:20.107Z,35.33
2018-11-07T23:02:56.321Z,39.00
2018-11-07T23:05:31.724Z,35.88
2018-11-07T23:08:07.161Z,35.70
2018-11-07T23:10:42.730Z,37.55
2018-11-07T23:13:18.351Z,31.23
2018-11-07T23:15:53.941Z,29.10
2018-11-07T23:18:29.430Z,32.88
2018-11-07T23:21:05.029Z,34.27
2018-11-07T23:23:40.438Z,39.85
2018-11-07T23:26:15.766Z,28.70
2018-11-07T23:28:51.669Z,31.75
2018-11-07T23:31:27.112Z,30.10
2018-11-07T23:34:02.654Z,27.90
2018-11-07T23:36:38.051Z,24.75
2018-11-07T23:39:13.408Z,21.87
2018-11-07T23:41:48.781Z,24.85
2018-11-07T23:44:24.152Z,30.80
2018-11-07T23:46:59.662Z,32.60
2018-11-07T23:49:34.930Z,38.63
2018-11-07T23:52:10.419Z,31.97
2018-11-07T23:54:46.015Z,33.30
2018-11-07T23:57:21.530Z,31.40
2018-11-07T23:59:57.221Z,27.45
